Hebron, CT (06248)

5:16 AM EDT on July 23, 2016 (GMT -0400)
At Skinner Lane | | Change Station

Elev 640 ft 41.68 °N, 72.37 °W | Updated 6 seconds ago

Clear
Clear
70.3 °F
Feels Like 70.3 °F
N
0.0
Wind Variable Wind from North
Gusts 0.0 mph

Today
High -- | Low -- °F
--% Chance of Precip.
Yesterday
High -- | Low -- °F
Precip. -- in
Pressure 29.78 in
Visibility 10.0 miles
Clouds Clear
Dew Point 66 °F
Humidity 86%
Rainfall 0.00 in
Snow Depth Not available.
5:35 AM 8:16 PM
Waning Gibbous, 86% visible
METAR KHFD 230853Z AUTO 18003KT 10SM CLR 24/22 A2977 RMK AO2 SLP082 T02390217 55002
Pressure 29.78 in
Visibility 10.0 miles
Clouds Clear
Dew Point 66 °F
Humidity 86%
Rainfall 0.00 in
Snow Depth Not available.
5:35 AM 8:16 PM
Waning Gibbous, 86% visible
METAR KHFD 230853Z AUTO 18003KT 10SM CLR 24/22 A2977 RMK AO2 SLP082 T02390217 55002

10-Day Weather Forecast

Almanac

Astronomy

Jul. 23, 2016 Rise Set
Actual Time
Civil Twilight
Nautical Twilight
Astronomical Twilight
Moon
Length of Visible Light
Length of Day
Tomorrow will be .
, % of the Moon is Illuminated

Today's Extremes

State Highs State Lows

Community

WunderPhotos

Upload Photos

1,926,790 photos uploaded!

WunderBlog® & News

Nearby

Air Quality

  Air Quality AQ Index Pollutant
Not available.

Snow Depth

Station Depth Elevation

Earthquake Activity

City Distance Mag. Time & Date
Minimum magnitude displayed is 2.5.

Coastal Water Temperatures

Place Temperature

Stations

Nearby Weather Stations

Station Location Temp. Windchill Dew Point Humidity Wind Precip. Elev Updated Type
                   

Watches & Warnings

There are currently no watches in effect.